createdAt,value
2018-12-25T00:00:46.120Z,2.50
2018-12-25T00:03:13.760Z,2.48
2018-12-25T00:05:41.381Z,2.50
2018-12-25T00:08:09.307Z,2.56
2018-12-25T00:10:36.943Z,2.56
2018-12-25T00:13:04.837Z,2.58
2018-12-25T00:15:32.461Z,2.58
2018-12-25T00:18:00.092Z,2.57
2018-12-25T00:20:27.717Z,2.60
2018-12-25T00:22:55.692Z,2.55
2018-12-25T00:25:23.659Z,2.53
2018-12-25T00:27:51.632Z,2.58
2018-12-25T00:30:19.616Z,2.52
2018-12-25T00:32:47.251Z,2.51
2018-12-25T00:35:14.882Z,2.55
2018-12-25T00:37:42.792Z,2.57
2018-12-25T00:40:10.763Z,2.57
2018-12-25T00:42:38.733Z,2.58
2018-12-25T00:45:06.358Z,2.58
2018-12-25T00:47:33.989Z,2.58
2018-12-25T00:50:01.934Z,2.63
2018-12-25T00:52:29.897Z,2.68
2018-12-25T00:54:57.520Z,2.70
2018-12-25T00:57:25.154Z,2.77
2018-12-25T00:59:53.085Z,2.76
2018-12-25T01:02:21.055Z,2.82
2018-12-25T01:04:48.683Z,2.75
2018-12-25T01:07:16.591Z,2.75
2018-12-25T01:09:44.214Z,2.74
2018-12-25T01:12:12.116Z,2.71
2018-12-25T01:14:39.743Z,2.63
2018-12-25T01:17:07.379Z,2.63
2018-12-25T01:19:35.306Z,2.63
2018-12-25T01:22:02.943Z,2.63
2018-12-25T01:24:30.572Z,2.62
2018-12-25T01:26:58.497Z,2.60
2018-12-25T01:29:26.472Z,2.62
2018-12-25T01:31:54.097Z,2.64
2018-12-25T01:34:21.999Z,2.62
2018-12-25T01:36:49.970Z,2.63
2018-12-25T01:39:17.942Z,2.62
2018-12-25T01:41:45.910Z,2.57
2018-12-25T01:44:13.533Z,2.58
2018-12-25T01:46:41.440Z,2.63
2018-12-25T01:49:09.427Z,2.54
2018-12-25T01:51:37.374Z,2.55
2018-12-25T01:54:05.010Z,2.50
2018-12-25T01:56:32.636Z,2.49
2018-12-25T01:59:00.360Z,2.44
2018-12-25T02:01:28.341Z,2.48
2018-12-25T02:03:56.099Z,2.36
2018-12-25T02:06:23.964Z,2.34
2018-12-25T02:08:51.599Z,2.38
2018-12-25T02:11:19.517Z,2.33
2018-12-25T02:13:47.462Z,2.33
2018-12-25T02:16:15.436Z,2.32
2018-12-25T02:18:43.402Z,2.34
2018-12-25T02:21:11.032Z,2.36
2018-12-25T02:23:38.953Z,2.33
2018-12-25T02:26:06.924Z,2.29
2018-12-25T02:28:34.550Z,2.29
2018-12-25T02:31:02.433Z,2.30
2018-12-25T02:33:30.066Z,2.33
2018-12-25T02:35:57.695Z,2.30
2018-12-25T02:38:25.642Z,2.30
2018-12-25T02:40:53.273Z,2.30
2018-12-25T02:43:20.903Z,2.30
2018-12-25T02:45:48.540Z,2.36
2018-12-25T02:48:16.482Z,2.32
2018-12-25T02:50:44.422Z,2.33
2018-12-25T02:53:12.051Z,2.39
2018-12-25T02:55:39.676Z,2.46
2018-12-25T02:58:07.307Z,2.50
2018-12-25T03:00:35.203Z,2.48
2018-12-25T03:03:03.169Z,2.53
2018-12-25T03:05:31.144Z,2.51
2018-12-25T03:07:58.779Z,2.50
2018-12-25T03:10:26.407Z,2.49
2018-12-25T03:12:54.032Z,2.52
2018-12-25T03:15:21.651Z,2.54
2018-12-25T03:17:49.353Z,2.60
2018-12-25T03:20:17.321Z,2.58
2018-12-25T03:22:45.295Z,2.69
2018-12-25T03:25:13.259Z,2.67
2018-12-25T03:27:41.230Z,2.68
2018-12-25T03:30:09.219Z,2.66
2018-12-25T03:32:36.856Z,2.63
2018-12-25T03:35:04.470Z,2.62
2018-12-25T03:37:32.397Z,2.67
2018-12-25T03:40:00.379Z,2.67
2018-12-25T03:42:28.329Z,2.63
2018-12-25T03:44:56.298Z,2.69
2018-12-25T03:47:23.922Z,2.69
2018-12-25T03:49:51.846Z,2.69
2018-12-25T03:52:19.472Z,2.71
2018-12-25T03:54:47.193Z,2.69
2018-12-25T03:57:15.141Z,2.70
2018-12-25T03:59:42.769Z,2.68
2018-12-25T04:02:10.671Z,2.76
2018-12-25T04:04:38.627Z,2.76
2018-12-25T04:07:06.253Z,2.70
2018-12-25T04:09:34.155Z,2.73
2018-12-25T04:12:02.139Z,2.73
2018-12-25T04:14:30.103Z,2.84
2018-12-25T04:16:58.066Z,2.90
2018-12-25T04:19:26.032Z,2.86
2018-12-25T04:21:53.652Z,2.87
2018-12-25T04:24:21.279Z,2.92
2018-12-25T04:26:48.910Z,2.94
2018-12-25T04:29:16.620Z,2.94
2018-12-25T04:31:44.545Z,2.94
2018-12-25T04:34:12.172Z,2.97
2018-12-25T04:36:40.081Z,2.98
2018-12-25T04:39:08.050Z,3.04
2018-12-25T04:41:35.679Z,3.01
2018-12-25T04:44:03.586Z,3.07
2018-12-25T04:46:31.560Z,3.08
2018-12-25T04:48:59.514Z,3.09
2018-12-25T04:51:27.506Z,3.12
2018-12-25T04:53:55.454Z,3.07
2018-12-25T04:56:23.426Z,3.12
2018-12-25T04:58:51.393Z,3.13
2018-12-25T05:01:19.467Z,3.10
2018-12-25T05:03:47.438Z,3.14
2018-12-25T05:06:15.405Z,3.21
2018-12-25T05:08:43.034Z,3.16
2018-12-25T05:11:10.682Z,3.16
2018-12-25T05:13:38.289Z,3.15
2018-12-25T05:16:06.257Z,3.20
2018-12-25T05:18:34.246Z,3.19
2018-12-25T05:21:01.871Z,3.19
2018-12-25T05:23:29.761Z,3.20
2018-12-25T05:25:57.463Z,3.27
2018-12-25T05:28:25.093Z,3.30
2018-12-25T05:30:53.071Z,3.27
2018-12-25T05:33:20.772Z,3.26
2018-12-25T05:35:48.685Z,3.29
2018-12-25T05:38:16.314Z,3.31
2018-12-25T05:40:44.214Z,3.33
2018-12-25T05:43:12.186Z,3.37
2018-12-25T05:45:39.817Z,3.36
2018-12-25T05:48:07.446Z,3.34
2018-12-25T05:50:35.380Z,3.33
2018-12-25T05:53:03.008Z,3.30
2018-12-25T05:55:30.908Z,3.33
2018-12-25T05:57:58.888Z,3.28
2018-12-25T06:00:26.847Z,3.26
2018-12-25T06:02:54.816Z,3.21
2018-12-25T06:05:22.785Z,3.21
2018-12-25T06:07:50.762Z,3.22
2018-12-25T06:10:18.730Z,3.13
2018-12-25T06:12:46.714Z,3.18
2018-12-25T06:15:14.344Z,3.16
2018-12-25T06:17:42.635Z,3.11
2018-12-25T06:20:10.261Z,3.10
2018-12-25T06:22:38.164Z,3.09
2018-12-25T06:25:06.135Z,3.08
2018-12-25T06:27:33.758Z,3.05
2018-12-25T06:30:01.662Z,3.08
2018-12-25T06:32:29.630Z,3.12
2018-12-25T06:34:57.607Z,3.08
2018-12-25T06:37:25.574Z,3.05
2018-12-25T06:39:53.543Z,3.16
2018-12-25T06:42:21.514Z,3.19
2018-12-25T06:44:49.143Z,3.14
2018-12-25T06:47:16.762Z,3.19
2018-12-25T06:49:44.726Z,3.15
2018-12-25T06:52:12.673Z,3.15
2018-12-25T06:54:40.641Z,3.11
2018-12-25T06:57:08.261Z,3.15
2018-12-25T06:59:35.896Z,3.20
2018-12-25T07:02:03.520Z,3.22
2018-12-25T07:04:31.503Z,3.24
2018-12-25T07:06:59.466Z,3.25
2018-12-25T07:09:27.101Z,3.31
2018-12-25T07:11:54.997Z,3.27
2018-12-25T07:14:22.630Z,3.35
2018-12-25T07:16:50.250Z,3.37
2018-12-25T07:19:18.188Z,3.39
2018-12-25T07:21:46.173Z,3.38
2018-12-25T07:24:13.793Z,3.41
2018-12-25T07:26:41.812Z,3.43
2018-12-25T07:29:09.757Z,3.41
2018-12-25T07:31:37.734Z,3.38
2018-12-25T07:34:05.362Z,3.42
2018-12-25T07:36:32.990Z,3.35
2018-12-25T07:39:00.618Z,3.40
2018-12-25T07:41:28.586Z,3.38
2018-12-25T07:43:56.552Z,3.36
2018-12-25T07:46:24.524Z,3.37
2018-12-25T07:48:52.153Z,3.33
2018-12-25T07:51:20.854Z,3.34
2018-12-25T07:53:48.942Z,3.40
2018-12-25T07:56:16.579Z,3.41
2018-12-25T07:58:44.199Z,3.47
2018-12-25T08:01:12.138Z,3.44
2018-12-25T08:03:40.107Z,3.49
2018-12-25T08:06:07.743Z,3.44
2018-12-25T08:08:35.649Z,3.48
2018-12-25T08:11:03.607Z,3.50
2018-12-25T08:13:31.575Z,3.57
2018-12-25T08:15:59.209Z,3.51
2018-12-25T08:18:26.834Z,3.49
2018-12-25T08:20:54.462Z,3.47
2018-12-25T08:23:22.081Z,3.50
2018-12-25T08:25:49.712Z,3.55
2018-12-25T08:28:17.679Z,3.51
2018-12-25T08:30:45.619Z,3.54
2018-12-25T08:33:13.251Z,3.49
2018-12-25T08:35:40.882Z,3.52
2018-12-25T08:38:08.811Z,3.50
2018-12-25T08:40:36.782Z,3.45
2018-12-25T08:43:04.749Z,3.52
2018-12-25T08:45:32.383Z,3.51
2018-12-25T08:48:00.303Z,3.53
2018-12-25T08:50:28.251Z,3.49
2018-12-25T08:52:56.192Z,3.51
2018-12-25T08:55:23.832Z,3.49
2018-12-25T08:57:51.751Z,3.52
2018-12-25T09:00:19.737Z,3.56
2018-12-25T09:02:47.695Z,3.55
2018-12-25T09:05:15.660Z,3.61
2018-12-25T09:07:43.632Z,3.61
2018-12-25T09:10:11.597Z,3.63
2018-12-25T09:12:39.565Z,3.65
2018-12-25T09:15:07.193Z,3.65
2018-12-25T09:17:35.099Z,3.66
2018-12-25T09:20:03.075Z,3.70
2018-12-25T09:22:31.038Z,3.73
2018-12-25T09:24:58.663Z,3.72
2018-12-25T09:27:26.571Z,3.78
2018-12-25T09:29:54.539Z,3.81
2018-12-25T09:32:22.178Z,3.78
2018-12-25T09:34:50.071Z,3.76
2018-12-25T09:37:17.745Z,3.86
2018-12-25T09:39:45.708Z,3.91
2018-12-25T09:42:13.365Z,3.97
2018-12-25T09:44:41.351Z,3.97
2018-12-25T09:47:09.305Z,3.97
2018-12-25T09:49:36.941Z,3.98
2018-12-25T09:52:04.937Z,3.91
2018-12-25T09:54:32.573Z,3.94
2018-12-25T09:57:00.572Z,3.93
2018-12-25T09:59:28.191Z,3.98
2018-12-25T10:01:56.096Z,3.93
2018-12-25T10:04:24.086Z,3.94
2018-12-25T10:06:52.037Z,3.90
2018-12-25T10:09:19.657Z,3.87
2018-12-25T10:11:47.567Z,3.88
2018-12-25T10:14:15.538Z,3.89
2018-12-25T10:16:43.502Z,3.93
2018-12-25T10:19:11.501Z,3.93
2018-12-25T10:21:39.155Z,3.99
2018-12-25T10:24:07.110Z,3.97
2018-12-25T10:26:34.749Z,3.99
2018-12-25T10:29:02.637Z,4.07
2018-12-25T10:31:30.607Z,4.03
2018-12-25T10:33:58.235Z,4.01
2018-12-25T10:36:25.870Z,4.09
2018-12-25T10:38:53.798Z,4.01
2018-12-25T10:41:21.782Z,4.03
2018-12-25T10:43:49.407Z,4.03
2018-12-25T10:46:17.402Z,4.05
2018-12-25T10:48:45.370Z,4.02
2018-12-25T10:51:13.647Z,4.03
2018-12-25T10:53:41.369Z,4.07
2018-12-25T10:56:08.989Z,4.11
2018-12-25T10:58:36.622Z,4.15
2018-12-25T11:01:04.322Z,4.19
2018-12-25T11:03:32.284Z,4.20
2018-12-25T11:06:00.239Z,4.20
2018-12-25T11:08:28.201Z,4.24
2018-12-25T11:10:55.828Z,4.25
2018-12-25T11:13:23.749Z,4.22
2018-12-25T11:15:51.702Z,4.23
2018-12-25T11:18:19.330Z,4.26
2018-12-25T11:20:46.953Z,4.24
2018-12-25T11:23:14.895Z,4.33
2018-12-25T11:25:42.522Z,4.30
2018-12-25T11:28:10.442Z,4.28
2018-12-25T11:30:38.397Z,4.35
2018-12-25T11:33:06.367Z,4.36
2018-12-25T11:35:34.336Z,4.38
2018-12-25T11:38:01.979Z,4.45
2018-12-25T11:40:29.883Z,4.42
2018-12-25T11:42:57.836Z,4.43
2018-12-25T11:45:25.454Z,4.42
2018-12-25T11:47:53.363Z,4.46
2018-12-25T11:50:21.230Z,4.46
2018-12-25T11:52:49.201Z,4.48
2018-12-25T11:55:17.172Z,4.53
2018-12-25T11:57:45.149Z,4.52
2018-12-25T12:00:12.763Z,4.49
2018-12-25T12:02:40.396Z,4.50
2018-12-25T12:05:08.013Z,4.51
2018-12-25T12:07:35.913Z,4.48
2018-12-25T12:10:03.543Z,4.47
2018-12-25T12:12:31.173Z,4.51
2018-12-25T12:14:59.103Z,4.49
2018-12-25T12:17:27.153Z,4.50
2018-12-25T12:19:54.774Z,4.50
2018-12-25T12:22:22.418Z,4.55
2018-12-25T12:24:50.348Z,4.52
2018-12-25T12:27:18.320Z,4.55
2018-12-25T12:29:45.948Z,4.49
2018-12-25T12:32:13.849Z,4.52
2018-12-25T12:34:41.463Z,4.48
2018-12-25T12:37:09.100Z,4.51
2018-12-25T12:39:37.039Z,4.53
2018-12-25T12:42:04.682Z,4.53
2018-12-25T12:44:32.572Z,4.53
2018-12-25T12:47:00.543Z,4.49
2018-12-25T12:49:28.239Z,4.51
2018-12-25T12:51:55.870Z,4.57
2018-12-25T12:54:23.850Z,4.53
2018-12-25T12:56:51.475Z,4.59
2018-12-25T12:59:19.361Z,4.55
2018-12-25T13:01:47.329Z,4.59
2018-12-25T13:04:15.323Z,4.56
2018-12-25T13:06:42.934Z,4.59
2018-12-25T13:09:10.582Z,4.55
2018-12-25T13:11:38.497Z,4.56
2018-12-25T13:14:06.124Z,4.52
2018-12-25T13:16:34.022Z,4.56
2018-12-25T13:19:01.994Z,4.50
2018-12-25T13:21:29.962Z,4.47
2018-12-25T13:23:57.938Z,4.45
2018-12-25T13:26:25.902Z,4.46
2018-12-25T13:28:53.891Z,4.51
2018-12-25T13:31:21.843Z,4.52
2018-12-25T13:33:49.814Z,4.49
2018-12-25T13:36:17.788Z,4.52
2018-12-25T13:38:45.419Z,4.57
2018-12-25T13:41:13.309Z,4.60
2018-12-25T13:43:41.276Z,4.59
2018-12-25T13:46:08.914Z,4.66
2018-12-25T13:48:36.812Z,4.69
2018-12-25T13:51:04.458Z,4.64
2018-12-25T13:53:32.337Z,4.66
2018-12-25T13:55:59.967Z,4.67
2018-12-25T13:58:27.603Z,4.70
2018-12-25T14:00:55.232Z,4.71
2018-12-25T14:03:23.193Z,4.69
2018-12-25T14:05:51.470Z,4.68
2018-12-25T14:08:19.438Z,4.65
2018-12-25T14:10:47.064Z,4.67
2018-12-25T14:13:14.695Z,4.68
2018-12-25T14:15:43.472Z,4.66
2018-12-25T14:18:11.097Z,4.75
2018-12-25T14:20:38.712Z,4.72
2018-12-25T14:23:11.227Z,4.74
2018-12-25T14:25:35.961Z,4.71
2018-12-25T14:28:03.916Z,4.71
2018-12-25T14:30:31.882Z,4.68
2018-12-25T14:32:59.866Z,4.65
2018-12-25T14:35:27.487Z,4.62
2018-12-25T14:37:55.388Z,4.62
2018-12-25T14:40:23.351Z,4.62
2018-12-25T14:42:51.324Z,4.57
2018-12-25T14:45:19.291Z,4.54
2018-12-25T14:47:47.264Z,4.59
2018-12-25T14:50:15.230Z,4.54
2018-12-25T14:52:43.201Z,4.53
2018-12-25T14:55:11.143Z,4.51
2018-12-25T14:57:38.775Z,4.55
2018-12-25T15:00:06.698Z,4.51
2018-12-25T15:02:34.317Z,4.45
2018-12-25T15:05:02.229Z,4.48
2018-12-25T15:07:30.202Z,4.42
2018-12-25T15:09:58.166Z,4.42
2018-12-25T15:12:25.795Z,4.37
2018-12-25T15:14:54.371Z,4.44
2018-12-25T15:17:22.280Z,4.45
2018-12-25T15:19:50.250Z,4.45
2018-12-25T15:22:17.875Z,4.45
2018-12-25T15:24:45.783Z,4.46
2018-12-25T15:27:13.405Z,4.47
2018-12-25T15:29:41.309Z,4.47
2018-12-25T15:32:09.281Z,4.47
2018-12-25T15:34:37.252Z,4.56
2018-12-25T15:37:05.233Z,4.58
2018-12-25T15:39:33.191Z,4.51
2018-12-25T15:42:00.809Z,4.48
2018-12-25T15:44:28.718Z,4.51
2018-12-25T15:46:56.338Z,4.50
2018-12-25T15:49:23.979Z,4.53
2018-12-25T15:51:51.933Z,4.53
2018-12-25T15:54:19.562Z,4.57
2018-12-25T15:56:47.446Z,4.55
2018-12-25T15:59:15.410Z,4.57
2018-12-25T16:01:43.381Z,4.53
2018-12-25T16:04:11.029Z,4.55
2018-12-25T16:06:38.651Z,4.53
2018-12-25T16:09:06.282Z,4.49
2018-12-25T16:11:33.906Z,4.54
2018-12-25T16:14:01.794Z,4.55
2018-12-25T16:16:29.424Z,4.55
2018-12-25T16:18:57.331Z,4.55
2018-12-25T16:21:24.954Z,4.54
2018-12-25T16:23:52.861Z,4.52
2018-12-25T16:26:20.826Z,4.57
2018-12-25T16:28:48.794Z,4.54
2018-12-25T16:31:16.420Z,4.57
2018-12-25T16:33:44.341Z,4.57
2018-12-25T16:36:11.970Z,4.61
2018-12-25T16:38:39.855Z,4.59
2018-12-25T16:41:07.482Z,4.60
2018-12-25T16:43:35.383Z,4.62
2018-12-25T16:46:03.353Z,4.65
2018-12-25T16:48:30.987Z,4.64
2018-12-25T16:50:58.884Z,4.63
2018-12-25T16:53:26.852Z,4.63
2018-12-25T16:55:54.481Z,4.64
2018-12-25T16:58:22.384Z,4.65
2018-12-25T17:00:50.351Z,4.66
2018-12-25T17:03:18.321Z,4.67
2018-12-25T17:05:45.964Z,4.68
2018-12-25T17:08:13.849Z,4.69
2018-12-25T17:10:41.821Z,4.73
2018-12-25T17:13:09.451Z,4.72
2018-12-25T17:15:37.353Z,4.68
2018-12-25T17:18:05.318Z,4.71
2018-12-25T17:20:32.950Z,4.67
2018-12-25T17:23:00.570Z,4.66
2018-12-25T17:25:28.189Z,4.62
2018-12-25T17:27:56.071Z,4.62
2018-12-25T17:30:23.701Z,4.61
2018-12-25T17:32:51.608Z,4.61
2018-12-25T17:35:19.238Z,4.60
2018-12-25T17:37:47.129Z,4.59
2018-12-25T17:40:15.103Z,4.59
2018-12-25T17:42:42.735Z,4.61
2018-12-25T17:45:10.634Z,4.59
2018-12-25T17:47:38.260Z,4.59
2018-12-25T17:50:06.158Z,4.66
2018-12-25T17:52:33.788Z,4.63
2018-12-25T17:55:01.690Z,4.64
2018-12-25T17:57:29.661Z,4.65
2018-12-25T17:59:57.630Z,4.62
2018-12-25T18:02:25.385Z,4.65
2018-12-25T18:04:53.393Z,4.64
2018-12-25T18:07:21.330Z,4.65
2018-12-25T18:09:48.966Z,4.65
2018-12-25T18:12:16.585Z,4.71
2018-12-25T18:14:44.523Z,4.67
2018-12-25T18:17:18.833Z,4.64
2018-12-25T18:19:42.102Z,4.65
2018-12-25T18:22:09.972Z,4.67
2018-12-25T18:24:37.906Z,4.67
2018-12-25T18:27:05.531Z,4.64
2018-12-25T18:29:33.469Z,4.66
2018-12-25T18:32:01.161Z,4.63
2018-12-25T18:34:29.109Z,4.63
2018-12-25T18:36:57.073Z,4.65
2018-12-25T18:39:24.695Z,4.64
2018-12-25T18:41:52.336Z,4.64
2018-12-25T18:44:19.964Z,4.61
2018-12-25T18:46:47.945Z,4.62
2018-12-25T18:49:15.909Z,4.68
2018-12-25T18:51:44.170Z,4.66
2018-12-25T18:54:11.866Z,4.66
2018-12-25T18:56:39.501Z,4.67
2018-12-25T18:59:07.123Z,4.75
2018-12-25T19:01:35.025Z,4.74
2018-12-25T19:04:02.662Z,4.71
2018-12-25T19:06:30.287Z,4.71
2018-12-25T19:08:58.223Z,4.64
2018-12-25T19:11:25.856Z,4.74
2018-12-25T19:13:53.475Z,4.73
2018-12-25T19:16:21.418Z,4.72
2018-12-25T19:18:49.381Z,4.65
2018-12-25T19:21:17.350Z,4.67
2018-12-25T19:23:45.321Z,4.68
2018-12-25T19:26:13.288Z,4.68
2018-12-25T19:28:41.256Z,4.71
2018-12-25T19:31:09.225Z,4.65
2018-12-25T19:33:37.207Z,4.65
2018-12-25T19:36:05.166Z,4.67
2018-12-25T19:38:33.140Z,4.61
2018-12-25T19:41:01.106Z,4.60
2018-12-25T19:43:28.737Z,4.64
2018-12-25T19:45:56.377Z,4.58
2018-12-25T19:48:24.299Z,4.57
2018-12-25T19:50:52.270Z,4.55
2018-12-25T19:53:20.240Z,4.63
2018-12-25T19:55:47.873Z,4.54
2018-12-25T19:58:15.501Z,4.55
2018-12-25T20:00:43.430Z,4.59
2018-12-25T20:03:11.059Z,4.58
2018-12-25T20:05:41.318Z,4.51
2018-12-25T20:08:08.360Z,4.51
2018-12-25T20:10:36.333Z,4.53
2018-12-25T20:13:04.306Z,4.49
2018-12-25T20:15:31.949Z,4.51
2018-12-25T20:17:59.575Z,4.47
2018-12-25T20:20:27.205Z,4.51
2018-12-25T20:22:55.156Z,4.48
2018-12-25T20:25:23.127Z,4.49
2018-12-25T20:27:50.761Z,4.46
2018-12-25T20:30:18.405Z,4.49
2018-12-25T20:32:46.316Z,4.50
2018-12-25T20:35:14.030Z,4.51
2018-12-25T20:37:41.953Z,4.51
2018-12-25T20:40:09.579Z,4.48
2018-12-25T20:42:37.210Z,4.49
2018-12-25T20:45:05.141Z,4.49
2018-12-25T20:47:33.117Z,4.48
2018-12-25T20:50:00.747Z,4.42
2018-12-25T20:52:28.443Z,4.45
2018-12-25T20:55:01.240Z,4.45
2018-12-25T20:57:26.018Z,4.53
2018-12-25T20:59:53.638Z,4.55
2018-12-25T21:02:21.541Z,4.55
2018-12-25T21:04:49.172Z,4.55
2018-12-25T21:07:16.802Z,4.50
2018-12-25T21:09:44.427Z,4.54
2018-12-25T21:12:12.398Z,4.51
2018-12-25T21:14:40.026Z,4.57
2018-12-25T21:17:07.949Z,4.48
2018-12-25T21:19:35.898Z,4.50
2018-12-25T21:22:03.541Z,4.56
2018-12-25T21:24:31.163Z,4.56
2018-12-25T21:26:59.095Z,4.47
2018-12-25T21:29:27.058Z,4.50
2018-12-25T21:31:54.692Z,4.51
2018-12-25T21:34:22.313Z,4.58
2018-12-25T21:36:50.272Z,4.58
2018-12-25T21:39:18.239Z,4.59
2018-12-25T21:41:45.877Z,4.58
2018-12-25T21:44:13.580Z,4.58
2018-12-25T21:46:41.515Z,4.60
2018-12-25T21:49:09.205Z,4.67
2018-12-25T21:51:36.838Z,4.64
2018-12-25T21:54:04.462Z,4.58
2018-12-25T21:56:32.088Z,4.66
2018-12-25T21:59:00.051Z,4.66
2018-12-25T22:01:27.681Z,4.64
2018-12-25T22:03:55.682Z,4.57
2018-12-25T22:06:23.657Z,4.64
2018-12-25T22:08:51.624Z,4.60
2018-12-25T22:11:19.251Z,4.63
2018-12-25T22:13:47.137Z,4.57
2018-12-25T22:16:14.885Z,4.64
2018-12-25T22:18:42.871Z,4.61
2018-12-25T22:21:10.501Z,4.62
2018-12-25T22:23:38.126Z,4.68
2018-12-25T22:26:06.177Z,4.60
2018-12-25T22:28:34.271Z,4.61
2018-12-25T22:31:02.208Z,4.63
2018-12-25T22:33:29.831Z,4.65
2018-12-25T22:35:57.457Z,4.66
2018-12-25T22:38:25.073Z,4.67
2018-12-25T22:40:53.064Z,4.65
2018-12-25T22:43:20.700Z,4.73
2018-12-25T22:45:48.314Z,4.62
2018-12-25T22:48:15.947Z,4.67
2018-12-25T22:50:43.949Z,4.72
2018-12-25T22:53:11.551Z,4.67
2018-12-25T22:55:40.712Z,4.62
2018-12-25T22:58:08.253Z,4.66
2018-12-25T23:00:36.617Z,4.64
2018-12-25T23:03:04.586Z,4.68
2018-12-25T23:05:32.377Z,4.65
2018-12-25T23:08:00.014Z,4.69
2018-12-25T23:10:27.977Z,4.72
2018-12-25T23:12:55.608Z,4.70
2018-12-25T23:15:23.507Z,4.76
2018-12-25T23:17:51.495Z,4.71
2018-12-25T23:20:19.455Z,4.71
2018-12-25T23:22:47.418Z,4.74
2018-12-25T23:25:15.389Z,4.68
2018-12-25T23:27:43.022Z,4.74
2018-12-25T23:30:10.644Z,4.77
2018-12-25T23:32:38.577Z,4.72
2018-12-25T23:35:06.218Z,4.79
2018-12-25T23:37:34.126Z,4.73
2018-12-25T23:40:01.755Z,4.76
2018-12-25T23:42:29.639Z,4.77
2018-12-25T23:44:57.611Z,4.71
2018-12-25T23:47:25.573Z,4.70
2018-12-25T23:49:53.194Z,4.78
2018-12-25T23:52:21.112Z,4.74
2018-12-25T23:54:49.078Z,4.77
2018-12-25T23:57:16.715Z,4.78
2018-12-25T23:59:44.661Z,4.78
